Impacts TAF Board INFO
FOR SITUATIONAL AWARENESS. NOT TO BE USED FOR FLIGHT PLANNING PURPOSES.
IDs:

KTOI - Troy Muni, AL, US

Issued at 0847 UTC 16 Aug 2018
Updated at 1027 UTC 16 Aug 2018
Potential Impact None Slight Moderate High
Time1009Z 16/11Z 16/12Z 16/13Z 16/14Z 16/15Z 16/16Z 16/17Z 16/18Z 16/19Z 16/20Z 16/21Z 16/22Z 16/23Z>>
Type OBS PRVL
  [TEMP]  
PRVL
  [TEMP]  
PRVL PRVL PRVL PRVL PRVL PRVL PRVL
  [PRB30]  
PRVL
  [PRB30]  
PRVL
  [PRB30]  
PRVL
  [PRB30]  
PRVL
VIS 0.25 4
  [1]  
4
  [1]  
4 4 >6 >6 >6 >6 >6
  [4]  
>6
  [4]  
>6
  [4]  
>6
  [4]  
>6
CIG 3 5
  [2]  
5
  [2]  
5 5 -- -- -- -- --
  [50]  
--
  [50]  
--
  [50]  
--
  [50]  
--
Cover OVX BKN
  [BKN]  
BKN
  [BKN]  
BKN BKN SCT SCT SCT SCT SCT
  [BKN]  
SCT
  [BKN]  
SCT
  [BKN]  
SCT
  [BKN]  
SCT
FltCat LIFR IFR
  [LIFR]  
IFR
  [LIFR]  
IFR IFR VFR VFR VFR VFR VFR
  [MVFR]  
VFR
  [MVFR]  
VFR
  [MVFR]  
VFR
  [MVFR]  
VFR
WX FG BR
  [BR]  
BR
  [BR]  
BR BR -- -- -- -- --
  [TSRA]  
--
  [TSRA]  
--
  [TSRA]  
--
  [TSRA]  
--
WDir VRB VRB
[VRB]
VRB
[VRB]
VRB VRB 140 140 140 150 150
[150]
150
[150]
150
[150]
150
[150]
150
WSpd 0 0
  [0]  
0
  [0]  
0 0 4 4 4 4 4
  [4]  
4
  [4]  
4
  [4]  
4
  [4]  
4
WGst -- --
  [--]  
--
  [--]  
-- -- -- -- -- -- --
  [--]  
--
  [--]  
--
  [--]  
--
  [--]  
--

Raw TAF
KTOI 160847Z 1609/1706 00000KT 4SM BR BKN005
  TEMPO 1610/1613 1SM BR BKN002
  FM161500 14004KT P6SM SCT250
  FM161800 15004KT P6SM SCT250
  PROB30 1619/1623 4SM TSRA BKN050CB


Raw METAR
KTOI 161009Z AUTO 00000KT 1/4SM FG VV003 23/23 A3012 RMK AO2 T02280228
KTOI 160953Z AUTO 00000KT 1/4SM FG VV002 23/23 A3012 RMK AO2 SLP192 T02280228
KTOI 160934Z AUTO 00000KT 1/2SM FG OVC002 23/22 A3011 RMK AO2 T02280222
KTOI 160931Z AUTO 00000KT 1SM BR OVC002 23/22 A3011 RMK AO2 T02280222
KTOI 160929Z AUTO 00000KT 1 1/2SM BR OVC002 23/22 A3011 RMK AO2 T02280222
KTOI 160920Z AUTO 00000KT 4SM BR OVC003 23/23 A3011 RMK AO2 T02280228
KTOI 160908Z AUTO 00000KT 5SM BR OVC004 22/22 A3011 RMK AO2 T02220222
KTOI 160853Z AUTO 00000KT 6SM BR BKN005 22/22 A3011 RMK AO2 SLP188 T02220217 53005
KTOI 160849Z AUTO 00000KT 7SM BKN005 22/22 A3010 RMK AO2
KTOI 160841Z AUTO 00000KT 7SM SCT005 23/22 A3010 RMK AO2 T02280222
KTOI 160753Z AUTO 00000KT 4SM BR CLR 22/22 A3009 RMK AO2 SLP182 T02220222

METAR Board
Radar Display
Forecast Discussion

FOR SITUATIONAL AWARENESS. NOT TO BE USED FOR FLIGHT PLANNING PURPOSES.